Time;durP1;ratioP1;P1;durP2;ratioP2;P2;SDS_P1;SDS_P2;PMS_P1;PMS_P2;Temp;Humidity;BMP_temperature;BMP_pressure;BME280_temperature;BME280_humidity;BME280_pressure;Samples;Min_cycle;Max_cycle;Signal;HPM_P1;HPM_P2
2021/07/31 00:00:34;;;;;;;7.00;6.30;;;18.90;99.90;;;;;;5048264;28;20448;-72
2021/07/31 00:03:01;;;;;;;6.60;5.90;;;18.90;99.90;;;;;;5048939;28;20446;-71
2021/07/31 00:05:28;;;;;;;6.90;5.77;;;19.00;99.90;;;;;;5048217;28;20432;-71
2021/07/31 00:07:54;;;;;;;7.43;6.63;;;19.20;99.90;;;;;;5048149;28;20456;-71
2021/07/31 00:10:21;;;;;;;5.47;4.40;;;19.20;99.90;;;;;;5045967;28;20518;-71
2021/07/31 00:12:48;;;;;;;5.90;5.10;;;19.30;99.90;;;;;;5047247;28;20482;-71
2021/07/31 00:15:16;;;;;;;7.27;4.87;;;19.40;99.90;;;;;;5048069;28;20505;-70
2021/07/31 00:17:44;;;;;;;4.50;4.00;;;19.50;99.90;;;;;;5048062;28;20520;-71
2021/07/31 00:20:11;;;;;;;5.40;3.60;;;19.50;99.90;;;;;;5047536;28;20466;-71
2021/07/31 00:22:38;;;;;;;8.03;3.23;;;19.60;99.90;;;;;;5047756;28;20440;-71
2021/07/31 00:25:06;;;;;;;6.50;3.90;;;19.70;99.90;;;;;;5049090;28;20904;-71
2021/07/31 00:27:33;;;;;;;7.63;2.97;;;19.70;99.90;;;;;;5049316;28;20547;-70
2021/07/31 00:30:00;;;;;;;4.30;2.97;;;19.80;99.90;;;;;;5048830;28;20863;-69
2021/07/31 00:32:27;;;;;;;5.67;2.90;;;19.90;99.90;;;;;;5050861;28;20476;-69
2021/07/31 00:34:55;;;;;;;5.20;2.80;;;19.90;99.90;;;;;;5050784;28;20433;-69
2021/07/31 00:37:22;;;;;;;4.47;2.50;;;19.90;99.90;;;;;;5050845;28;20540;-70
2021/07/31 00:39:49;;;;;;;6.60;3.20;;;19.70;99.90;;;;;;5049954;28;20862;-70
2021/07/31 00:42:16;;;;;;;6.93;3.07;;;19.40;99.90;;;;;;5050740;28;20432;-69
2021/07/31 00:44:42;;;;;;;3.77;2.60;;;19.10;99.90;;;;;;5050604;28;20519;-70
2021/07/31 00:47:10;;;;;;;5.27;2.63;;;18.90;99.90;;;;;;5050814;28;20485;-70
2021/07/31 00:49:37;;;;;;;4.97;3.00;;;18.70;99.90;;;;;;5050105;28;20460;-70
2021/07/31 00:52:06;;;;;;;5.67;3.27;;;18.60;99.90;;;;;;5050510;28;20480;-69
2021/07/31 00:54:34;;;;;;;4.30;2.97;;;18.50;99.90;;;;;;5050265;28;20432;-69
2021/07/31 00:57:01;;;;;;;5.03;2.60;;;18.50;99.90;;;;;;5050511;28;20515;-69
2021/07/31 00:59:28;;;;;;;4.80;2.70;;;18.50;99.90;;;;;;5049944;28;20499;-69
2021/07/31 01:01:56;;;;;;;3.80;2.90;;;18.60;99.90;;;;;;5050251;28;20989;-69
2021/07/31 01:04:23;;;;;;;4.90;2.83;;;18.50;99.90;;;;;;5050529;28;20440;-69
2021/07/31 01:06:50;;;;;;;6.20;2.77;;;18.50;99.90;;;;;;5050234;28;20869;-69
2021/07/31 01:09:18;;;;;;;4.60;2.63;;;18.60;99.90;;;;;;5049959;28;20456;-69
2021/07/31 01:11:45;;;;;;;6.10;2.57;;;18.50;99.90;;;;;;5050213;28;20476;-69
2021/07/31 01:14:12;;;;;;;3.63;3.13;;;18.50;99.90;;;;;;5050124;28;20531;-69
2021/07/31 01:16:39;;;;;;;6.33;2.90;;;18.60;99.90;;;;;;5049876;28;21017;-69
2021/07/31 01:19:07;;;;;;;3.77;2.57;;;18.60;99.90;;;;;;5049850;28;20551;-69
2021/07/31 01:21:42;;;;;;;5.37;2.30;;;18.70;99.90;;;;;;5050102;28;20518;-69
2021/07/31 01:24:11;;;;;;;4.67;2.93;;;18.80;99.90;;;;;;5049927;28;20436;-68
2021/07/31 01:26:39;;;;;;;4.80;2.90;;;18.80;99.90;;;;;;5050043;28;20431;-69
2021/07/31 01:29:07;;;;;;;3.70;2.40;;;18.80;99.90;;;;;;5049733;28;20466;-69
2021/07/31 01:31:34;;;;;;;6.20;3.10;;;18.80;99.90;;;;;;5050337;28;20439;-69
2021/07/31 01:34:01;;;;;;;5.07;3.27;;;18.80;99.90;;;;;;5050616;28;20439;-69
2021/07/31 01:36:28;;;;;;;4.80;2.70;;;18.90;99.90;;;;;;5050371;28;20519;-69
2021/07/31 01:38:56;;;;;;;4.40;2.97;;;18.90;99.90;;;;;;5050231;28;20456;-70
2021/07/31 01:41:23;;;;;;;5.57;2.47;;;18.90;99.90;;;;;;5050136;28;20439;-69
2021/07/31 01:43:51;;;;;;;5.80;2.43;;;19.00;99.90;;;;;;5050182;28;20523;-70
2021/07/31 01:46:17;;;;;;;5.10;1.80;;;19.00;99.90;;;;;;5050412;28;20444;-69
2021/07/31 01:48:45;;;;;;;5.93;2.40;;;19.10;99.90;;;;;;5050094;28;20466;-70
2021/07/31 01:51:12;;;;;;;5.70;2.70;;;19.10;99.90;;;;;;5050187;28;20518;-70
2021/07/31 01:53:39;;;;;;;5.90;2.67;;;19.20;99.90;;;;;;5050162;28;20475;-70
2021/07/31 01:56:07;;;;;;;4.07;2.47;;;19.10;99.90;;;;;;5051900;28;20440;-69
2021/07/31 01:58:34;;;;;;;3.77;2.03;;;19.20;99.90;;;;;;5051350;28;21031;-69
2021/07/31 02:01:01;;;;;;;3.40;1.97;;;19.20;99.90;;;;;;5050213;28;20435;-70
2021/07/31 02:03:28;;;;;;;3.87;1.73;;;19.20;99.90;;;;;;5052846;28;20527;-70
2021/07/31 02:05:56;;;;;;;4.57;2.20;;;19.20;99.90;;;;;;5054704;28;20442;-69
2021/07/31 02:08:23;;;;;;;5.93;1.70;;;19.10;99.90;;;;;;5052376;28;20548;-69
2021/07/31 02:10:50;;;;;;;2.80;1.80;;;19.10;99.90;;;;;;5049941;28;20450;-70
2021/07/31 02:13:19;;;;;;;3.80;2.20;;;19.00;99.90;;;;;;5049842;28;20484;-69
2021/07/31 02:15:47;;;;;;;5.87;2.37;;;18.80;99.90;;;;;;5049558;28;20948;-70
2021/07/31 02:18:14;;;;;;;4.80;1.90;;;18.80;99.90;;;;;;5050015;28;20468;-69
2021/07/31 02:20:41;;;;;;;4.63;2.10;;;18.70;99.90;;;;;;5050514;28;20443;-70
2021/07/31 02:23:08;;;;;;;3.63;1.73;;;18.60;99.90;;;;;;5052316;28;20446;-69
2021/07/31 02:25:35;;;;;;;7.97;2.43;;;18.60;99.90;;;;;;5052022;28;20546;-68
2021/07/31 02:28:02;;;;;;;4.20;2.30;;;18.50;99.90;;;;;;5049433;28;20471;-69
2021/07/31 02:30:30;;;;;;;3.63;1.70;;;18.50;99.90;;;;;;5049046;28;20922;-69
2021/07/31 02:32:57;;;;;;;5.60;2.00;;;18.40;99.90;;;;;;5049290;28;20915;-69
2021/07/31 02:35:24;;;;;;;5.43;1.50;;;18.30;99.90;;;;;;5049292;28;20439;-69
2021/07/31 02:37:51;;;;;;;4.10;1.93;;;18.10;99.90;;;;;;5052951;28;20443;-69
2021/07/31 02:40:17;;;;;;;3.87;1.97;;;18.10;99.90;;;;;;5052666;28;20523;-70
2021/07/31 02:42:44;;;;;;;4.23;1.93;;;18.00;99.90;;;;;;5053031;28;20432;-69
2021/07/31 02:45:11;;;;;;;7.03;1.90;;;17.80;99.90;;;;;;5053129;28;20450;-69
2021/07/31 02:47:39;;;;;;;4.33;2.10;;;17.70;99.90;;;;;;5053104;28;20436;-70
2021/07/31 02:50:07;;;;;;;5.70;1.90;;;17.60;99.90;;;;;;5052399;28;20444;-70
2021/07/31 02:52:34;;;;;;;4.20;1.90;;;17.50;99.90;;;;;;5052704;28;20482;-70
2021/07/31 02:55:02;;;;;;;4.53;1.80;;;17.60;99.90;;;;;;5052677;28;20774;-70
2021/07/31 02:57:30;;;;;;;5.60;3.23;;;17.50;99.90;;;;;;5053007;28;20454;-69
2021/07/31 02:59:57;;;;;;;4.50;1.97;;;17.40;99.90;;;;;;5052616;28;20448;-70
2021/07/31 03:02:25;;;;;;;4.10;1.80;;;17.40;99.90;;;;;;5052475;28;20562;-67
2021/07/31 03:04:54;;;;;;;5.13;1.93;;;17.20;99.90;;;;;;5052471;28;20452;-67
2021/07/31 03:07:21;;;;;;;4.80;1.80;;;17.10;99.90;;;;;;5052454;28;20555;-70
2021/07/31 03:09:47;;;;;;;3.43;1.63;;;16.90;99.90;;;;;;5052551;28;20459;-67
2021/07/31 03:12:15;;;;;;;3.80;2.07;;;16.80;99.90;;;;;;5052220;28;20443;-68
2021/07/31 03:14:42;;;;;;;4.97;1.87;;;16.70;99.90;;;;;;5052466;28;20509;-68
2021/07/31 03:17:10;;;;;;;6.30;2.10;;;16.50;99.90;;;;;;5052258;28;20814;-69
2021/07/31 03:19:36;;;;;;;4.03;1.97;;;16.50;99.90;;;;;;5052028;28;20498;-68
2021/07/31 03:22:05;;;;;;;3.77;2.00;;;16.40;99.90;;;;;;5052323;28;20961;-68
2021/07/31 03:24:34;;;;;;;6.27;2.30;;;16.30;99.90;;;;;;5052607;28;20531;-70
2021/07/31 03:27:01;;;;;;;3.40;2.20;;;16.20;99.90;;;;;;5052390;28;20462;-68
2021/07/31 03:29:28;;;;;;;5.00;1.80;;;16.00;99.90;;;;;;5050535;28;21160;-68
2021/07/31 03:31:55;;;;;;;4.00;2.13;;;15.90;99.90;;;;;;5051588;28;20442;-68
2021/07/31 03:34:22;;;;;;;3.60;2.20;;;15.90;99.90;;;;;;5051595;28;20471;-68
2021/07/31 03:36:52;;;;;;;4.30;2.03;;;15.80;99.90;;;;;;5052183;28;20456;-68
2021/07/31 03:39:22;;;;;;;4.23;2.20;;;15.60;99.90;;;;;;5051776;28;20464;-68
2021/07/31 03:41:49;;;;;;;4.83;2.20;;;15.50;99.90;;;;;;5051988;28;20870;-68
2021/07/31 03:44:16;;;;;;;4.40;2.60;;;15.50;99.90;;;;;;5051891;28;20436;-68
2021/07/31 03:46:44;;;;;;;5.97;2.40;;;15.40;99.90;;;;;;5051515;28;20454;-68
2021/07/31 03:49:11;;;;;;;6.73;2.67;;;15.40;99.90;;;;;;5051513;28;20472;-67
2021/07/31 03:51:37;;;;;;;5.37;2.77;;;15.30;99.90;;;;;;5051970;28;20531;-67
2021/07/31 03:54:04;;;;;;;6.40;2.27;;;15.20;99.90;;;;;;5051628;28;20475;-68
2021/07/31 03:56:33;;;;;;;6.13;2.80;;;15.10;99.90;;;;;;5051592;28;20475;-68
2021/07/31 03:59:00;;;;;;;4.50;2.47;;;15.10;99.90;;;;;;5051145;28;20464;-69
2021/07/31 04:01:27;;;;;;;7.93;2.90;;;15.10;99.90;;;;;;5051669;28;20436;-68
2021/07/31 04:03:55;;;;;;;4.90;2.50;;;15.10;99.90;;;;;;5051600;28;20440;-68
2021/07/31 04:06:22;;;;;;;5.03;2.47;;;15.10;99.90;;;;;;5051519;28;20447;-68
2021/07/31 04:08:49;;;;;;;5.37;2.57;;;15.10;99.90;;;;;;5051667;28;20467;-67
2021/07/31 04:11:16;;;;;;;5.80;2.53;;;15.00;99.90;;;;;;5051244;28;20531;-68
2021/07/31 04:13:44;;;;;;;3.90;2.07;;;14.90;99.90;;;;;;5051224;28;20479;-68
2021/07/31 04:16:11;;;;;;;4.97;2.40;;;15.00;99.90;;;;;;5051508;28;20539;-68
2021/07/31 04:18:38;;;;;;;7.70;2.87;;;14.90;99.90;;;;;;5051275;28;20551;-69
2021/07/31 04:21:08;;;;;;;3.57;2.67;;;14.90;99.90;;;;;;5051020;28;20448;-69
2021/07/31 04:23:35;;;;;;;6.90;2.83;;;14.90;99.90;;;;;;5051283;28;20922;-68
2021/07/31 04:26:11;;;;;;;5.33;2.63;;;14.90;99.90;;;;;;5050920;28;20825;-68
2021/07/31 04:28:38;;;;;;;9.00;3.10;;;14.90;99.90;;;;;;5051088;28;20464;-68
2021/07/31 04:31:13;;;;;;;7.40;2.67;;;14.90;99.90;;;;;;5050544;28;20531;-69
2021/07/31 04:33:41;;;;;;;4.07;2.10;;;14.90;99.90;;;;;;5050792;28;20562;-69
2021/07/31 04:36:08;;;;;;;4.50;2.80;;;14.90;99.90;;;;;;5050624;28;20535;-69
2021/07/31 04:38:35;;;;;;;4.10;2.47;;;15.00;99.90;;;;;;5050668;28;20965;-70
2021/07/31 04:41:03;;;;;;;5.17;3.37;;;15.00;99.90;;;;;;5050722;28;20486;-70
2021/07/31 04:43:30;;;;;;;4.47;2.63;;;15.00;99.90;;;;;;5051045;28;20444;-68
2021/07/31 04:45:57;;;;;;;4.30;2.70;;;15.00;99.90;;;;;;5050875;28;20436;-68
2021/07/31 04:48:25;;;;;;;10.07;3.60;;;15.10;99.90;;;;;;5050889;28;21018;-68
2021/07/31 04:50:57;;;;;;;4.27;3.00;;;15.20;99.90;;;;;;5050373;28;20790;-68
2021/07/31 04:53:24;;;;;;;9.23;3.07;;;15.30;99.90;;;;;;5050511;28;20839;-68
2021/07/31 04:55:51;;;;;;;7.03;3.00;;;15.40;99.90;;;;;;5050643;28;20444;-68
2021/07/31 04:58:18;;;;;;;5.07;2.63;;;15.40;99.90;;;;;;5050429;28;20550;-68
2021/07/31 05:00:46;;;;;;;6.80;3.00;;;15.50;99.90;;;;;;5050119;28;20798;-68
2021/07/31 05:03:13;;;;;;;7.80;2.47;;;15.50;99.90;;;;;;5050566;28;20451;-68
2021/07/31 05:05:42;;;;;;;7.40;3.17;;;15.50;99.90;;;;;;5050518;28;20436;-68
2021/07/31 05:08:08;;;;;;;7.57;3.80;;;15.50;99.90;;;;;;5050695;28;20467;-68
2021/07/31 05:10:39;;;;;;;7.20;3.17;;;15.60;99.90;;;;;;5050256;28;20933;-68
2021/07/31 05:13:05;;;;;;;5.30;3.53;;;15.60;99.90;;;;;;5051171;28;20878;-68
2021/07/31 05:15:32;;;;;;;5.17;2.63;;;15.70;99.90;;;;;;5050481;28;20474;-69
2021/07/31 05:17:59;;;;;;;9.00;3.17;;;15.70;99.90;;;;;;5049832;28;20458;-68
2021/07/31 05:20:26;;;;;;;6.17;2.60;;;15.80;99.90;;;;;;5049371;28;20543;-69
2021/07/31 05:22:54;;;;;;;5.63;2.50;;;16.00;99.90;;;;;;5050006;28;20479;-68
2021/07/31 05:25:21;;;;;;;4.40;2.17;;;16.10;99.90;;;;;;5050079;28;20887;-68
2021/07/31 05:27:48;;;;;;;4.40;2.60;;;16.20;99.90;;;;;;5049647;28;20498;-68
2021/07/31 05:30:15;;;;;;;6.03;2.50;;;16.20;99.90;;;;;;5049411;28;20432;-68
2021/07/31 05:32:42;;;;;;;4.77;2.73;;;16.30;99.90;;;;;;5049619;28;20530;-68
2021/07/31 05:35:10;;;;;;;5.97;3.03;;;16.40;99.90;;;;;;5049481;28;20567;-69
2021/07/31 05:37:37;;;;;;;5.77;3.17;;;16.40;99.90;;;;;;5049821;28;20523;-69
2021/07/31 05:40:06;;;;;;;5.70;3.07;;;16.40;99.90;;;;;;5049426;28;20523;-70
2021/07/31 05:42:33;;;;;;;5.00;2.47;;;16.40;99.90;;;;;;5049809;28;20942;-68
2021/07/31 05:45:00;;;;;;;5.43;3.10;;;16.50;99.90;;;;;;5049597;28;20436;-69
2021/07/31 05:47:29;;;;;;;4.17;2.10;;;16.60;99.90;;;;;;5049438;28;20436;-69
2021/07/31 05:49:57;;;;;;;4.10;2.40;;;16.70;99.90;;;;;;5048883;28;20459;-69
2021/07/31 05:52:26;;;;;;;5.60;2.80;;;16.80;99.90;;;;;;5049408;28;20926;-70
2021/07/31 05:54:53;;;;;;;5.10;2.57;;;16.90;99.90;;;;;;5049472;28;20479;-69
2021/07/31 05:57:21;;;;;;;6.03;2.70;;;16.90;99.90;;;;;;5049665;28;20440;-69
2021/07/31 05:59:49;;;;;;;8.20;3.40;;;17.00;99.90;;;;;;5049586;28;20498;-69
2021/07/31 06:02:16;;;;;;;5.73;2.80;;;17.00;99.90;;;;;;5049957;28;20440;-69
2021/07/31 06:04:43;;;;;;;5.73;2.40;;;17.10;99.90;;;;;;5050117;28;20436;-69
2021/07/31 06:07:11;;;;;;;5.10;2.67;;;17.20;99.90;;;;;;5049663;28;20472;-70
2021/07/31 06:09:39;;;;;;;6.30;2.60;;;17.20;99.90;;;;;;5049347;28;20824;-70
2021/07/31 06:12:07;;;;;;;8.23;2.67;;;17.30;99.90;;;;;;5053618;28;20444;-68
2021/07/31 06:14:36;;;;;;;50.23;9.90;;;17.40;99.90;;;;;;5053481;28;20554;-68
2021/07/31 06:17:04;;;;;;;6.33;2.60;;;17.50;99.90;;;;;;5053198;28;20435;-68
2021/07/31 06:19:31;;;;;;;5.80;2.50;;;17.70;99.90;;;;;;5052721;28;20546;-68
2021/07/31 06:21:59;;;;;;;10.03;3.13;;;17.80;99.90;;;;;;5053123;28;20436;-68
2021/07/31 06:24:26;;;;;;;10.47;2.77;;;17.90;99.90;;;;;;5052881;28;20436;-68
2021/07/31 06:26:53;;;;;;;5.63;2.10;;;17.90;99.90;;;;;;5052748;28;20442;-68
2021/07/31 06:29:20;;;;;;;5.17;2.30;;;18.00;99.90;;;;;;5052538;28;20507;-68
2021/07/31 06:31:49;;;;;;;3.77;2.10;;;17.90;99.90;;;;;;5052597;28;20432;-69
2021/07/31 06:34:16;;;;;;;6.57;2.47;;;18.10;99.90;;;;;;5052737;28;20513;-68
2021/07/31 06:36:43;;;;;;;11.37;2.10;;;18.10;99.90;;;;;;5052545;28;20451;-68
2021/07/31 06:39:10;;;;;;;6.33;2.30;;;18.20;99.90;;;;;;5052190;28;20459;-68
2021/07/31 06:41:37;;;;;;;7.73;2.50;;;18.20;99.90;;;;;;5052516;28;20562;-69
2021/07/31 06:44:05;;;;;;;10.30;2.30;;;18.20;99.90;;;;;;5052672;28;20450;-69
2021/07/31 06:46:32;;;;;;;6.33;2.83;;;18.30;99.90;;;;;;5052383;28;21049;-68
2021/07/31 06:49:00;;;;;;;6.90;2.50;;;18.30;99.90;;;;;;5052174;28;20456;-69
2021/07/31 06:51:27;;;;;;;4.47;2.53;;;18.50;99.90;;;;;;5052485;28;20904;-68
2021/07/31 06:53:54;;;;;;;4.80;2.03;;;18.50;99.90;;;;;;5052556;28;20480;-68
2021/07/31 06:56:21;;;;;;;4.93;2.13;;;18.70;99.90;;;;;;5052865;28;20535;-69
2021/07/31 06:58:48;;;;;;;6.60;2.67;;;18.80;99.90;;;;;;5052431;28;21014;-68
2021/07/31 07:01:15;;;;;;;3.43;2.00;;;18.80;99.90;;;;;;5052225;28;20475;-68
2021/07/31 07:03:43;;;;;;;5.53;2.40;;;18.90;99.90;;;;;;5052416;28;20442;-68
2021/07/31 07:06:12;;;;;;;5.33;2.07;;;19.00;99.90;;;;;;5052272;28;20432;-68
2021/07/31 07:08:38;;;;;;;3.47;1.90;;;19.10;99.90;;;;;;5052042;28;20521;-68
2021/07/31 07:11:06;;;;;;;8.73;2.20;;;19.10;99.90;;;;;;5051809;28;20451;-68
2021/07/31 07:13:33;;;;;;;9.43;2.57;;;19.10;99.90;;;;;;5051722;28;20432;-68
2021/07/31 07:16:04;;;;;;;4.50;2.17;;;19.30;99.90;;;;;;5051919;28;20436;-69
2021/07/31 07:18:31;;;;;;;8.47;2.07;;;19.40;99.90;;;;;;5051552;28;20812;-68
2021/07/31 07:20:59;;;;;;;4.67;2.10;;;19.40;99.90;;;;;;5051375;28;20447;-67
2021/07/31 07:23:27;;;;;;;8.67;2.40;;;19.50;99.90;;;;;;5051339;28;20527;-68
2021/07/31 07:25:54;;;;;;;3.73;2.30;;;19.60;99.90;;;;;;5051858;28;20983;-69
2021/07/31 07:28:20;;;;;;;5.47;2.00;;;19.60;99.90;;;;;;5051632;28;20464;-69
2021/07/31 07:30:47;;;;;;;6.27;2.50;;;19.70;99.90;;;;;;5051198;28;20882;-69
2021/07/31 07:33:14;;;;;;;4.23;2.07;;;19.80;99.90;;;;;;5051422;28;20977;-70
2021/07/31 07:35:41;;;;;;;4.67;2.10;;;19.80;99.90;;;;;;5051704;28;20581;-70
2021/07/31 07:38:08;;;;;;;3.90;1.97;;;19.90;99.90;;;;;;5051696;28;20460;-69
2021/07/31 07:40:36;;;;;;;8.40;2.00;;;20.10;99.90;;;;;;5051301;28;20440;-70
2021/07/31 07:43:03;;;;;;;3.77;1.90;;;20.20;99.90;;;;;;5051565;28;20547;-70
2021/07/31 07:45:30;;;;;;;7.97;2.83;;;20.30;99.90;;;;;;5051315;28;20440;-69
2021/07/31 07:47:57;;;;;;;3.97;2.10;;;20.40;99.90;;;;;;5051482;28;20484;-69
2021/07/31 07:50:24;;;;;;;4.00;2.10;;;20.40;99.90;;;;;;5051139;28;20436;-69
2021/07/31 07:52:51;;;;;;;10.17;3.63;;;20.40;99.90;;;;;;5051154;28;20440;-68
2021/07/31 07:55:18;;;;;;;4.43;1.97;;;20.50;99.90;;;;;;5050941;28;20482;-68
2021/07/31 07:57:46;;;;;;;6.27;1.70;;;20.60;99.90;;;;;;5051004;28;20519;-68
2021/07/31 08:00:15;;;;;;;5.80;1.70;;;20.60;99.90;;;;;;5050594;28;20498;-68
2021/07/31 08:02:41;;;;;;;5.30;2.22;;;20.50;99.90;;;;;;5050062;28;20530;-69
2021/07/31 08:05:11;;;;;;;6.83;2.10;;;20.60;99.90;;;;;;5051156;28;20197;-68
2021/07/31 08:07:41;;;;;;;7.07;2.77;;;20.80;99.90;;;;;;5050695;28;20863;-68
2021/07/31 08:10:09;;;;;;;4.63;2.60;;;20.90;99.90;;;;;;5050551;28;20655;-67
2021/07/31 08:12:37;;;;;;;6.10;1.80;;;21.00;99.90;;;;;;5050656;28;20467;-67
2021/07/31 08:15:06;;;;;;;5.80;2.13;;;20.90;99.90;;;;;;5050576;28;20572;-68
2021/07/31 08:17:33;;;;;;;3.80;1.93;;;20.80;99.90;;;;;;5050559;28;20960;-67
2021/07/31 08:20:00;;;;;;;5.00;2.00;;;20.60;99.90;;;;;;5050378;28;20447;-70
2021/07/31 08:22:27;;;;;;;4.93;2.20;;;20.60;99.90;;;;;;5050602;28;20468;-68
2021/07/31 08:24:54;;;;;;;4.77;2.10;;;20.80;99.90;;;;;;5050646;28;20810;-68
2021/07/31 08:27:21;;;;;;;5.60;1.90;;;21.00;99.90;;;;;;5050555;28;20919;-68
2021/07/31 08:29:47;;;;;;;6.00;1.70;;;21.10;99.90;;;;;;5050438;28;20464;-69
2021/07/31 08:32:16;;;;;;;5.50;2.37;;;21.10;99.90;;;;;;5050434;28;20531;-69
2021/07/31 08:34:42;;;;;;;8.63;2.17;;;21.30;99.90;;;;;;5049578;28;20472;-69
2021/07/31 08:37:10;;;;;;;5.40;1.90;;;21.40;99.90;;;;;;5050346;28;20522;-69
2021/07/31 08:39:38;;;;;;;4.70;1.90;;;21.40;99.90;;;;;;5050087;28;20464;-69
2021/07/31 08:42:05;;;;;;;6.73;2.73;;;21.30;99.90;;;;;;5050740;28;20436;-68
2021/07/31 08:44:34;;;;;;;4.40;1.70;;;21.10;99.90;;;;;;5050522;28;20448;-67
2021/07/31 08:47:04;;;;;;;4.23;1.80;;;20.90;99.90;;;;;;5049804;28;20442;-68
2021/07/31 08:49:34;;;;;;;4.93;2.47;;;20.70;99.90;;;;;;5048547;28;20463;-66
2021/07/31 08:52:03;;;;;;;5.83;2.40;;;20.70;99.90;;;;;;5055213;28;20451;-67
2021/07/31 08:54:30;;;;;;;3.93;2.13;;;20.90;99.90;;;;;;5056386;28;20479;-68
2021/07/31 08:56:57;;;;;;;3.87;1.93;;;21.00;99.90;;;;;;5050386;28;20439;-67
2021/07/31 08:59:27;;;;;;;4.70;2.40;;;21.10;99.90;;;;;;5057806;28;20455;-68
2021/07/31 09:01:55;;;;;;;6.53;2.17;;;21.30;99.90;;;;;;5051238;28;20436;-67
2021/07/31 09:04:22;;;;;;;4.50;1.80;;;21.60;99.90;;;;;;5049722;28;20484;-67
2021/07/31 09:06:51;;;;;;;3.90;2.30;;;22.00;99.90;;;;;;5049774;28;20446;-67
2021/07/31 09:09:25;;;;;;;4.93;1.90;;;22.40;99.90;;;;;;5049552;28;20511;-68
2021/07/31 09:11:59;;;;;;;3.73;2.20;;;22.20;99.90;;;;;;5049698;28;20439;-69
2021/07/31 09:14:27;;;;;;;4.17;2.03;;;22.30;99.90;;;;;;5049277;28;20475;-68
2021/07/31 09:16:54;;;;;;;4.67;1.90;;;22.50;99.90;;;;;;5056033;28;20534;-68
2021/07/31 09:19:22;;;;;;;4.63;2.07;;;22.90;99.90;;;;;;5054344;28;20506;-68
2021/07/31 09:21:51;;;;;;;4.30;1.97;;;23.30;99.90;;;;;;5056791;28;20451;-68
2021/07/31 09:24:20;;;;;;;4.27;2.20;;;23.40;99.90;;;;;;5055313;28;20517;-68
2021/07/31 09:26:49;;;;;;;4.37;2.07;;;23.50;99.90;;;;;;5058370;28;20528;-68
2021/07/31 09:29:18;;;;;;;3.93;2.20;;;23.60;99.90;;;;;;5057597;28;20459;-68
2021/07/31 09:31:56;;;;;;;4.10;1.60;;;23.40;99.90;;;;;;5055126;28;20883;-69
2021/07/31 09:34:28;;;;;;;7.63;2.47;;;23.50;99.90;;;;;;5056159;28;21035;-70
2021/07/31 09:37:11;;;;;;;4.10;1.90;;;23.80;99.90;;;;;;5052387;28;20442;-68
2021/07/31 09:39:53;;;;;;;4.93;2.30;;;23.90;99.90;;;;;;5048964;28;20468;-68
2021/07/31 09:42:31;;;;;;;6.23;2.90;;;24.00;99.90;;;;;;5049376;28;20436;-67
2021/07/31 09:45:00;;;;;;;5.80;2.53;;;24.20;99.70;;;;;;5054953;28;20514;-69
2021/07/31 09:47:27;;;;;;;7.30;2.80;;;24.50;98.90;;;;;;5064975;28;20535;-67
2021/07/31 09:49:54;;;;;;;2.97;1.93;;;24.70;99.90;;;;;;5073265;28;20450;-67
2021/07/31 09:52:24;;;;;;;6.77;2.20;;;25.00;99.90;;;;;;5073346;28;20450;-68
2021/07/31 09:54:51;;;;;;;4.70;2.00;;;25.40;97.60;;;;;;5062922;28;20484;-68
2021/07/31 09:57:18;;;;;;;3.90;1.90;;;25.60;96.20;;;;;;5060701;28;20956;-68
2021/07/31 09:59:47;;;;;;;4.73;1.70;;;25.70;97.10;;;;;;5057313;28;20490;-67
2021/07/31 10:02:18;;;;;;;4.87;1.63;;;25.40;96.70;;;;;;5048976;28;20471;-68
2021/07/31 10:04:47;;;;;;;3.70;1.70;;;25.40;96.40;;;;;;5047616;28;20532;-69
2021/07/31 10:07:14;;;;;;;3.43;1.57;;;26.10;94.80;;;;;;5046885;28;20451;-69
2021/07/31 10:09:45;;;;;;;4.90;2.00;;;26.20;94.60;;;;;;5041690;28;20460;-68
2021/07/31 10:12:14;;;;;;;6.03;2.00;;;25.70;94.60;;;;;;5039803;28;20495;-69
2021/07/31 10:14:41;;;;;;;3.50;1.57;;;25.30;94.90;;;;;;5038663;28;20913;-67
2021/07/31 10:17:08;;;;;;;5.40;2.20;;;24.90;95.40;;;;;;5039637;28;20467;-69
2021/07/31 10:19:41;;;;;;;5.23;2.10;;;24.70;95.60;;;;;;5046232;28;20542;-68
2021/07/31 10:22:08;;;;;;;3.63;2.00;;;24.30;95.50;;;;;;5044106;28;20449;-69
2021/07/31 10:25:06;;;;;;;4.83;1.90;;;24.20;95.60;;;;;;5044206;28;20930;-70
2021/07/31 10:27:34;;;;;;;5.83;2.37;;;24.00;96.60;;;;;;5043512;28;20506;-67
2021/07/31 10:30:02;;;;;;;3.60;1.77;;;24.10;96.40;;;;;;5039330;28;20930;-67
2021/07/31 10:32:42;;;;;;;4.20;1.60;;;23.90;95.10;;;;;;5048534;28;20439;-66
2021/07/31 10:35:27;;;;;;;4.37;2.37;;;23.60;96.90;;;;;;5061841;28;20483;-69
2021/07/31 10:37:54;;;;;;;4.70;2.30;;;23.40;97.60;;;;;;5051014;28;20442;-67
2021/07/31 10:40:45;;;;;;;4.27;2.00;;;23.70;97.50;;;;;;5052076;28;20444;-68
2021/07/31 10:43:13;;;;;;;8.33;2.03;;;24.40;95.80;;;;;;5045178;28;20436;-68
2021/07/31 10:45:41;;;;;;;4.73;2.37;;;25.00;96.00;;;;;;5035850;28;20444;-69
2021/07/31 10:48:23;;;;;;;5.30;1.83;;;24.90;95.30;;;;;;5035166;28;20566;-68
2021/07/31 10:50:50;;;;;;;11.63;6.03;;;25.00;93.60;;;;;;5041661;28;20920;-69
2021/07/31 10:53:19;;;;;;;5.63;3.30;;;25.20;95.60;;;;;;5036245;28;20455;-69
2021/07/31 10:56:06;;;;;;;4.97;1.67;;;25.60;93.10;;;;;;5030301;28;20485;-68
2021/07/31 10:58:33;;;;;;;5.00;1.77;;;25.40;92.70;;;;;;5030254;28;20511;-67
2021/07/31 11:01:20;;;;;;;6.73;2.23;;;25.40;93.60;;;;;;5031182;28;20880;-69
2021/07/31 11:03:48;;;;;;;3.93;1.93;;;25.00;93.30;;;;;;5031690;28;20449;-69
2021/07/31 11:06:15;;;;;;;4.50;2.07;;;24.70;93.40;;;;;;5030279;28;20524;-67
2021/07/31 11:09:11;;;;;;;3.17;1.77;;;24.50;93.50;;;;;;5031137;28;20465;-67
2021/07/31 11:11:40;;;;;;;7.30;1.90;;;24.80;93.50;;;;;;5030729;28;20457;-67
2021/07/31 11:14:07;;;;;;;4.10;1.80;;;25.10;94.70;;;;;;5028696;28;20463;-69
2021/07/31 11:16:34;;;;;;;6.90;2.07;;;25.20;92.60;;;;;;5053236;28;20490;-69
2021/07/31 11:19:02;;;;;;;4.20;1.80;;;25.60;93.50;;;;;;5054561;28;20562;-69
2021/07/31 11:21:30;;;;;;;3.10;1.90;;;26.00;92.00;;;;;;5067262;28;20584;-68
2021/07/31 11:24:00;;;;;;;4.33;1.60;;;26.10;91.30;;;;;;5064021;28;20455;-69
2021/07/31 11:26:45;;;;;;;4.07;1.73;;;26.20;91.20;;;;;;5045327;28;20444;-68
2021/07/31 11:29:17;;;;;;;4.27;1.73;;;25.90;90.00;;;;;;5039984;28;20469;-68
2021/07/31 11:31:57;;;;;;;5.93;1.80;;;25.80;91.60;;;;;;5042592;28;20592;-69
2021/07/31 11:34:23;;;;;;;3.03;1.77;;;26.10;93.20;;;;;;5038459;28;20531;-68
2021/07/31 11:36:56;;;;;;;5.57;2.13;;;25.80;91.10;;;;;;5033684;28;20513;-68
2021/07/31 11:39:23;;;;;;;4.07;1.83;;;25.80;91.90;;;;;;5030366;28;20555;-69
2021/07/31 11:41:51;;;;;;;4.83;2.27;;;25.80;91.60;;;;;;5030550;28;21099;-68
2021/07/31 11:44:26;;;;;;;5.20;2.30;;;26.10;92.50;;;;;;5030273;28;20986;-69
2021/07/31 11:46:53;;;;;;;4.30;1.70;;;25.90;91.60;;;;;;5031965;28;20488;-68
2021/07/31 11:49:28;;;;;;;3.50;1.70;;;25.90;92.30;;;;;;5049139;28;20472;-67
2021/07/31 11:51:56;;;;;;;5.43;1.93;;;26.30;92.20;;;;;;5040728;28;20539;-69
2021/07/31 11:54:24;;;;;;;4.50;2.07;;;26.80;92.10;;;;;;5030075;28;20449;-68
2021/07/31 11:56:53;;;;;;;4.40;1.77;;;26.60;89.90;;;;;;5030390;28;20510;-69
2021/07/31 11:59:24;;;;;;;3.93;1.80;;;27.00;90.80;;;;;;5030854;28;20559;-67
2021/07/31 12:01:52;;;;;;;3.60;1.90;;;27.50;90.40;;;;;;5031367;28;20455;-70
2021/07/31 12:04:44;;;;;;;4.40;1.90;;;28.20;88.20;;;;;;5031185;28;20441;-69
2021/07/31 12:07:13;;;;;;;4.90;1.80;;;27.50;89.20;;;;;;5033370;28;20524;-68
2021/07/31 12:09:41;;;;;;;4.53;1.90;;;26.90;87.50;;;;;;5030506;28;20477;-68
2021/07/31 12:12:24;;;;;;;3.80;2.17;;;26.40;90.00;;;;;;5030781;28;20472;-68
2021/07/31 12:15:10;;;;;;;5.00;1.63;;;26.60;89.40;;;;;;5031259;28;20859;-69
2021/07/31 12:17:38;;;;;;;6.97;1.93;;;26.90;87.90;;;;;;5035343;28;20459;-69
2021/07/31 12:20:07;;;;;;;3.17;1.70;;;27.10;86.40;;;;;;5036260;28;20457;-69
2021/07/31 12:22:35;;;;;;;4.80;2.20;;;26.70;87.30;;;;;;5035254;28;20468;-69
2021/07/31 12:25:14;;;;;;;4.53;2.27;;;27.00;88.70;;;;;;5030708;28;20444;-68
2021/07/31 12:27:57;;;;;;;3.63;1.97;;;26.90;88.30;;;;;;5030411;28;20453;-70
2021/07/31 12:30:28;;;;;;;3.60;2.03;;;26.30;90.10;;;;;;5030434;28;21073;-69
2021/07/31 12:32:57;;;;;;;4.60;1.90;;;26.20;91.10;;;;;;5030482;28;20441;-70
2021/07/31 12:35:32;;;;;;;4.57;2.47;;;26.70;90.30;;;;;;5046861;28;20557;-69
2021/07/31 12:37:58;;;;;;;3.00;1.50;;;27.30;85.80;;;;;;5042139;28;20468;-68
2021/07/31 12:40:26;;;;;;;3.37;2.10;;;27.60;85.90;;;;;;5038234;28;21114;-68
2021/07/31 12:42:53;;;;;;;4.23;1.80;;;27.60;86.40;;;;;;5048408;28;21043;-67
2021/07/31 12:45:21;;;;;;;4.80;2.20;;;27.70;87.70;;;;;;5057788;28;20458;-68
2021/07/31 12:47:48;;;;;;;3.37;1.90;;;27.50;84.40;;;;;;5051887;28;20983;-68
2021/07/31 12:50:15;;;;;;;4.87;1.93;;;27.50;88.30;;;;;;5050711;28;20453;-68
2021/07/31 12:52:42;;;;;;;4.37;2.07;;;27.20;88.10;;;;;;5053946;28;20996;-69